sensor_id;sensor_type;location;lat;lon;timestamp;pressure;altitude;pressure_sealevel;temperature;humidity
6532;BME280;3299;42.004;24.868;2024-02-23T00:01:06;98107.94;;;8.13;79.96
6532;BME280;3299;42.004;24.868;2024-02-23T00:03:33;98105.72;;;8.21;80.45
6532;BME280;3299;42.004;24.868;2024-02-23T00:06:00;98063.75;;;7.93;80.91
6532;BME280;3299;42.004;24.868;2024-02-23T00:08:25;98100.81;;;8.17;81.17
6532;BME280;3299;42.004;24.868;2024-02-23T00:10:50;98025.53;;;7.73;80.83
6532;BME280;3299;42.004;24.868;2024-02-23T00:13:16;98084.38;;;8.05;80.87
6532;BME280;3299;42.004;24.868;2024-02-23T00:15:41;98078.81;;;7.99;80.77
6532;BME280;3299;42.004;24.868;2024-02-23T00:18:08;98125.31;;;8.24;81.16
6532;BME280;3299;42.004;24.868;2024-02-23T00:20:33;98045.72;;;7.66;81.45
6532;BME280;3299;42.004;24.868;2024-02-23T00:22:59;98084.97;;;7.96;82.10
6532;BME280;3299;42.004;24.868;2024-02-23T00:25:24;98039.28;;;7.59;82.39
6532;BME280;3299;42.004;24.868;2024-02-23T00:27:50;98066.94;;;7.70;83.31
6532;BME280;3299;42.004;24.868;2024-02-23T00:30:15;98106.16;;;7.87;83.36
6532;BME280;3299;42.004;24.868;2024-02-23T00:32:41;98103.25;;;7.79;83.85
6532;BME280;3299;42.004;24.868;2024-02-23T00:35:06;98100.13;;;7.74;84.27
6532;BME280;3299;42.004;24.868;2024-02-23T00:37:32;98005.56;;;7.09;84.68
6532;BME280;3299;42.004;24.868;2024-02-23T00:40:02;97999.94;;;7.03;85.30
6532;BME280;3299;42.004;24.868;2024-02-23T00:42:29;98037.69;;;7.30;86.13
6532;BME280;3299;42.004;24.868;2024-02-23T00:44:55;97995.56;;;7.05;86.11
6532;BME280;3299;42.004;24.868;2024-02-23T00:47:20;98034.75;;;7.22;86.59
6532;BME280;3299;42.004;24.868;2024-02-23T00:49:45;98001.06;;;6.99;86.00
6532;BME280;3299;42.004;24.868;2024-02-23T00:52:11;98077.47;;;7.39;86.19
6532;BME280;3299;42.004;24.868;2024-02-23T00:54:36;98052.56;;;7.39;85.37
6532;BME280;3299;42.004;24.868;2024-02-23T00:57:02;97991.53;;;6.87;85.54
6532;BME280;3299;42.004;24.868;2024-02-23T00:59:27;98069.66;;;7.26;86.29
6532;BME280;3299;42.004;24.868;2024-02-23T01:01:54;97975.91;;;6.76;86.70
6532;BME280;3299;42.004;24.868;2024-02-23T01:04:19;98061.38;;;7.35;86.71
6532;BME280;3299;42.004;24.868;2024-02-23T01:06:45;98062.38;;;7.33;86.76
6532;BME280;3299;42.004;24.868;2024-02-23T01:09:10;98061.19;;;7.38;86.53
6532;BME280;3299;42.004;24.868;2024-02-23T01:11:35;98056.44;;;7.32;86.50
6532;BME280;3299;42.004;24.868;2024-02-23T01:14:01;97995.09;;;6.84;87.30
6532;BME280;3299;42.004;24.868;2024-02-23T01:16:26;98026.69;;;7.14;86.98
6532;BME280;3299;42.004;24.868;2024-02-23T01:18:51;97972.59;;;6.88;87.07
6532;BME280;3299;42.004;24.868;2024-02-23T01:21:17;98004.63;;;7.10;86.85
6532;BME280;3299;42.004;24.868;2024-02-23T01:23:42;98000.78;;;7.03;87.01
6532;BME280;3299;42.004;24.868;2024-02-23T01:26:08;98028.22;;;7.31;86.63
6532;BME280;3299;42.004;24.868;2024-02-23T01:28:33;98036.72;;;7.45;85.63
6532;BME280;3299;42.004;24.868;2024-02-23T01:30:58;97997.63;;;7.26;85.48
6532;BME280;3299;42.004;24.868;2024-02-23T01:33:24;97996.25;;;7.21;85.60
6532;BME280;3299;42.004;24.868;2024-02-23T01:35:50;98036.09;;;7.42;86.20
6532;BME280;3299;42.004;24.868;2024-02-23T01:38:16;97975.78;;;7.05;86.55
6532;BME280;3299;42.004;24.868;2024-02-23T01:40:45;97946.97;;;6.86;86.57
6532;BME280;3299;42.004;24.868;2024-02-23T01:43:11;97950.28;;;6.74;87.52
6532;BME280;3299;42.004;24.868;2024-02-23T01:45:36;98044.31;;;7.20;87.61
6532;BME280;3299;42.004;24.868;2024-02-23T01:48:02;98054.41;;;7.23;87.89
6532;BME280;3299;42.004;24.868;2024-02-23T01:50:29;97976.00;;;6.74;88.50
6532;BME280;3299;42.004;24.868;2024-02-23T01:52:57;98038.09;;;6.96;89.63
6532;BME280;3299;42.004;24.868;2024-02-23T01:55:24;98026.31;;;6.92;89.75
6532;BME280;3299;42.004;24.868;2024-02-23T01:57:49;97971.47;;;6.50;90.52
6532;BME280;3299;42.004;24.868;2024-02-23T02:00:16;97970.66;;;6.63;90.08
6532;BME280;3299;42.004;24.868;2024-02-23T02:02:47;97949.13;;;6.52;89.75
6532;BME280;3299;42.004;24.868;2024-02-23T02:05:13;97960.19;;;6.52;89.83
6532;BME280;3299;42.004;24.868;2024-02-23T02:07:40;97971.50;;;6.64;89.98
6532;BME280;3299;42.004;24.868;2024-02-23T02:10:08;98025.78;;;7.01;89.55
6532;BME280;3299;42.004;24.868;2024-02-23T02:12:34;97987.00;;;6.76;89.60
6532;BME280;3299;42.004;24.868;2024-02-23T02:15:00;98028.16;;;7.04;89.53
6532;BME280;3299;42.004;24.868;2024-02-23T02:17:27;98024.78;;;7.04;89.42
6532;BME280;3299;42.004;24.868;2024-02-23T02:19:53;98017.31;;;6.99;89.71
6532;BME280;3299;42.004;24.868;2024-02-23T02:22:18;98005.94;;;6.89;89.76
6532;BME280;3299;42.004;24.868;2024-02-23T02:24:44;98021.63;;;6.99;89.89
6532;BME280;3299;42.004;24.868;2024-02-23T02:27:11;97970.03;;;6.60;90.40
6532;BME280;3299;42.004;24.868;2024-02-23T02:29:37;97961.56;;;6.44;91.09
6532;BME280;3299;42.004;24.868;2024-02-23T02:32:02;97920.91;;;6.22;91.46
6532;BME280;3299;42.004;24.868;2024-02-23T02:34:28;97922.09;;;6.17;91.83
6532;BME280;3299;42.004;24.868;2024-02-23T02:36:54;98034.19;;;6.75;92.40
6532;BME280;3299;42.004;24.868;2024-02-23T02:39:20;97984.25;;;6.51;92.04
6532;BME280;3299;42.004;24.868;2024-02-23T02:41:47;97991.75;;;6.40;92.57
6532;BME280;3299;42.004;24.868;2024-02-23T02:44:13;98029.22;;;6.58;92.85
6532;BME280;3299;42.004;24.868;2024-02-23T02:46:39;98020.44;;;6.62;92.74
6532;BME280;3299;42.004;24.868;2024-02-23T02:49:04;97987.53;;;6.39;92.81
6532;BME280;3299;42.004;24.868;2024-02-23T02:51:30;97982.41;;;6.39;92.60
6532;BME280;3299;42.004;24.868;2024-02-23T02:53:55;98028.31;;;6.59;92.70
6532;BME280;3299;42.004;24.868;2024-02-23T02:56:20;97941.25;;;5.97;93.47
6532;BME280;3299;42.004;24.868;2024-02-23T02:58:46;97997.44;;;6.31;93.96
6532;BME280;3299;42.004;24.868;2024-02-23T03:01:11;98007.81;;;6.44;93.15
6532;BME280;3299;42.004;24.868;2024-02-23T03:03:37;97953.47;;;6.22;92.94
6532;BME280;3299;42.004;24.868;2024-02-23T03:06:03;97939.16;;;6.18;92.45
6532;BME280;3299;42.004;24.868;2024-02-23T03:08:28;98014.56;;;6.60;92.51
6532;BME280;3299;42.004;24.868;2024-02-23T03:10:54;97994.97;;;6.44;92.21
6532;BME280;3299;42.004;24.868;2024-02-23T03:13:19;97982.97;;;6.44;92.60
6532;BME280;3299;42.004;24.868;2024-02-23T03:15:45;98018.50;;;6.66;92.14
6532;BME280;3299;42.004;24.868;2024-02-23T03:18:10;97992.03;;;6.50;92.51
6532;BME280;3299;42.004;24.868;2024-02-23T03:20:36;98034.69;;;6.82;93.01
6532;BME280;3299;42.004;24.868;2024-02-23T03:23:01;97989.84;;;6.44;91.92
6532;BME280;3299;42.004;24.868;2024-02-23T03:25:29;97998.19;;;6.33;93.47
6532;BME280;3299;42.004;24.868;2024-02-23T03:27:54;97944.38;;;6.02;93.84
6532;BME280;3299;42.004;24.868;2024-02-23T03:30:20;98036.94;;;6.58;93.91
6532;BME280;3299;42.004;24.868;2024-02-23T03:32:45;97957.22;;;6.16;93.31
6532;BME280;3299;42.004;24.868;2024-02-23T03:35:12;98034.56;;;6.55;92.68
6532;BME280;3299;42.004;24.868;2024-02-23T03:37:38;97945.81;;;6.06;92.18
6532;BME280;3299;42.004;24.868;2024-02-23T03:40:05;97869.63;;;5.63;92.34
6532;BME280;3299;42.004;24.868;2024-02-23T03:42:30;97963.00;;;6.20;92.24
6532;BME280;3299;42.004;24.868;2024-02-23T03:44:55;97953.56;;;6.20;92.31
6532;BME280;3299;42.004;24.868;2024-02-23T03:47:21;97962.94;;;6.35;92.64
6532;BME280;3299;42.004;24.868;2024-02-23T03:49:46;98003.16;;;6.50;92.28
6532;BME280;3299;42.004;24.868;2024-02-23T03:52:12;97949.16;;;6.08;92.93
6532;BME280;3299;42.004;24.868;2024-02-23T03:54:37;98006.44;;;6.38;93.53
6532;BME280;3299;42.004;24.868;2024-02-23T03:57:03;98051.44;;;6.59;93.61
6532;BME280;3299;42.004;24.868;2024-02-23T03:59:28;98046.09;;;6.48;94.00
6532;BME280;3299;42.004;24.868;2024-02-23T04:01:54;98069.19;;;6.34;94.90
6532;BME280;3299;42.004;24.868;2024-02-23T04:04:20;97979.03;;;5.80;95.65
6532;BME280;3299;42.004;24.868;2024-02-23T04:06:45;98041.63;;;6.22;95.89
6532;BME280;3299;42.004;24.868;2024-02-23T04:09:11;98015.78;;;5.96;96.12
6532;BME280;3299;42.004;24.868;2024-02-23T04:11:36;98044.38;;;5.90;97.84
6532;BME280;3299;42.004;24.868;2024-02-23T04:14:02;98040.16;;;5.89;98.06
6532;BME280;3299;42.004;24.868;2024-02-23T04:16:27;97956.75;;;5.35;98.72
6532;BME280;3299;42.004;24.868;2024-02-23T04:18:54;98014.06;;;5.50;99.90
6532;BME280;3299;42.004;24.868;2024-02-23T04:21:20;97992.56;;;5.37;100.00
6532;BME280;3299;42.004;24.868;2024-02-23T04:23:45;98043.97;;;5.82;100.00
6532;BME280;3299;42.004;24.868;2024-02-23T04:26:11;98036.28;;;5.82;98.42
6532;BME280;3299;42.004;24.868;2024-02-23T04:28:40;98027.72;;;5.81;98.94
6532;BME280;3299;42.004;24.868;2024-02-23T04:31:07;98022.84;;;5.61;98.87
6532;BME280;3299;42.004;24.868;2024-02-23T04:33:34;98043.94;;;5.66;99.36
6532;BME280;3299;42.004;24.868;2024-02-23T04:36:00;97958.25;;;5.24;99.16
6532;BME280;3299;42.004;24.868;2024-02-23T04:38:25;97994.38;;;5.50;98.30
6532;BME280;3299;42.004;24.868;2024-02-23T04:40:50;98008.22;;;5.48;98.39
6532;BME280;3299;42.004;24.868;2024-02-23T04:43:16;97935.59;;;5.16;98.88
6532;BME280;3299;42.004;24.868;2024-02-23T04:45:41;98004.88;;;5.46;99.38
6532;BME280;3299;42.004;24.868;2024-02-23T04:48:07;97985.34;;;5.43;99.29
6532;BME280;3299;42.004;24.868;2024-02-23T04:50:32;98029.88;;;5.73;99.24
6532;BME280;3299;42.004;24.868;2024-02-23T04:52:58;97996.38;;;5.45;99.63
6532;BME280;3299;42.004;24.868;2024-02-23T04:55:23;98030.69;;;5.58;100.00
6532;BME280;3299;42.004;24.868;2024-02-23T04:57:48;97964.69;;;5.15;100.00
6532;BME280;3299;42.004;24.868;2024-02-23T05:00:14;97995.28;;;5.34;100.00
6532;BME280;3299;42.004;24.868;2024-02-23T05:02:39;98000.41;;;5.34;100.00
6532;BME280;3299;42.004;24.868;2024-02-23T05:05:05;97948.56;;;4.98;100.00
6532;BME280;3299;42.004;24.868;2024-02-23T05:07:31;98038.16;;;5.47;100.00
6532;BME280;3299;42.004;24.868;2024-02-23T05:09:57;98007.63;;;5.27;100.00
6532;BME280;3299;42.004;24.868;2024-02-23T05:12:23;98003.91;;;5.17;100.00
6532;BME280;3299;42.004;24.868;2024-02-23T05:14:48;98066.69;;;5.57;100.00
6532;BME280;3299;42.004;24.868;2024-02-23T05:17:14;98051.81;;;5.63;100.00
6532;BME280;3299;42.004;24.868;2024-02-23T05:19:39;98028.38;;;5.23;100.00
6532;BME280;3299;42.004;24.868;2024-02-23T05:22:04;98066.13;;;5.36;100.00
6532;BME280;3299;42.004;24.868;2024-02-23T05:24:30;97984.38;;;4.99;100.00
6532;BME280;3299;42.004;24.868;2024-02-23T05:26:55;98021.91;;;5.31;100.00
6532;BME280;3299;42.004;24.868;2024-02-23T05:29:23;98058.69;;;5.47;100.00
6532;BME280;3299;42.004;24.868;2024-02-23T05:31:52;98037.34;;;5.47;100.00
6532;BME280;3299;42.004;24.868;2024-02-23T05:34:18;97979.31;;;5.13;100.00
6532;BME280;3299;42.004;24.868;2024-02-23T05:36:44;98031.88;;;5.53;100.00
6532;BME280;3299;42.004;24.868;2024-02-23T05:39:11;97992.00;;;5.32;100.00
6532;BME280;3299;42.004;24.868;2024-02-23T05:41:38;98078.00;;;5.85;100.00
6532;BME280;3299;42.004;24.868;2024-02-23T05:44:04;98067.16;;;5.80;100.00
6532;BME280;3299;42.004;24.868;2024-02-23T05:46:35;98085.59;;;6.02;100.00
6532;BME280;3299;42.004;24.868;2024-02-23T05:49:00;98062.25;;;5.91;100.00
6532;BME280;3299;42.004;24.868;2024-02-23T05:51:28;98006.03;;;5.56;100.00
6532;BME280;3299;42.004;24.868;2024-02-23T05:53:54;97988.34;;;5.51;100.00
6532;BME280;3299;42.004;24.868;2024-02-23T05:56:20;98036.59;;;5.91;100.00
6532;BME280;3299;42.004;24.868;2024-02-23T05:58:46;97992.09;;;5.75;100.00
6532;BME280;3299;42.004;24.868;2024-02-23T06:01:11;97997.78;;;5.82;100.00
6532;BME280;3299;42.004;24.868;2024-02-23T06:03:36;98071.38;;;6.26;100.00
6532;BME280;3299;42.004;24.868;2024-02-23T06:06:02;98029.84;;;6.04;100.00
6532;BME280;3299;42.004;24.868;2024-02-23T06:08:31;97990.19;;;5.94;99.25
6532;BME280;3299;42.004;24.868;2024-02-23T06:10:57;98045.63;;;6.42;97.25
6532;BME280;3299;42.004;24.868;2024-02-23T06:13:25;98084.34;;;6.68;96.18
6532;BME280;3299;42.004;24.868;2024-02-23T06:15:50;98016.69;;;6.24;96.25
6532;BME280;3299;42.004;24.868;2024-02-23T06:18:15;98055.94;;;6.56;96.32
6532;BME280;3299;42.004;24.868;2024-02-23T06:20:41;98023.88;;;6.33;96.25
6532;BME280;3299;42.004;24.868;2024-02-23T06:23:07;98068.91;;;6.68;96.29
6532;BME280;3299;42.004;24.868;2024-02-23T06:25:32;98121.09;;;6.98;96.75
6532;BME280;3299;42.004;24.868;2024-02-23T06:27:58;98076.53;;;6.70;97.49
6532;BME280;3299;42.004;24.868;2024-02-23T06:30:23;98139.31;;;7.23;96.59
6532;BME280;3299;42.004;24.868;2024-02-23T06:32:48;98127.72;;;7.16;96.49
6532;BME280;3299;42.004;24.868;2024-02-23T06:35:14;98080.03;;;6.97;96.56
6532;BME280;3299;42.004;24.868;2024-02-23T06:37:39;98106.50;;;7.13;96.67
6532;BME280;3299;42.004;24.868;2024-02-23T06:40:05;98053.88;;;6.90;96.49
6532;BME280;3299;42.004;24.868;2024-02-23T06:42:32;98101.28;;;7.14;96.44
6532;BME280;3299;42.004;24.868;2024-02-23T06:44:58;98102.03;;;7.30;96.82
6532;BME280;3299;42.004;24.868;2024-02-23T06:47:23;98053.78;;;7.06;96.66
6532;BME280;3299;42.004;24.868;2024-02-23T06:49:50;98086.09;;;7.38;96.40
6532;BME280;3299;42.004;24.868;2024-02-23T06:52:16;98050.00;;;7.25;96.45
6532;BME280;3299;42.004;24.868;2024-02-23T06:54:41;98123.59;;;7.70;97.12
6532;BME280;3299;42.004;24.868;2024-02-23T06:57:07;98119.69;;;7.77;97.82
6532;BME280;3299;42.004;24.868;2024-02-23T06:59:32;98085.13;;;7.67;97.92
6532;BME280;3299;42.004;24.868;2024-02-23T07:01:58;98052.63;;;7.52;97.97
6532;BME280;3299;42.004;24.868;2024-02-23T07:04:23;98055.84;;;7.55;98.08
6532;BME280;3299;42.004;24.868;2024-02-23T07:06:50;98121.72;;;7.86;99.98
6532;BME280;3299;42.004;24.868;2024-02-23T07:09:15;98126.75;;;7.87;100.00
6532;BME280;3299;42.004;24.868;2024-02-23T07:11:41;98129.50;;;7.98;100.00
6532;BME280;3299;42.004;24.868;2024-02-23T07:14:09;98120.81;;;8.13;99.63
6532;BME280;3299;42.004;24.868;2024-02-23T07:16:38;98123.47;;;8.12;99.17
6532;BME280;3299;42.004;24.868;2024-02-23T07:19:04;98110.88;;;8.21;99.20
6532;BME280;3299;42.004;24.868;2024-02-23T07:21:30;98089.50;;;8.19;99.08
6532;BME280;3299;42.004;24.868;2024-02-23T07:23:55;98090.47;;;8.31;98.79
6532;BME280;3299;42.004;24.868;2024-02-23T07:26:21;98064.91;;;8.28;97.65
6532;BME280;3299;42.004;24.868;2024-02-23T07:28:47;98050.56;;;8.24;96.80
6532;BME280;3299;42.004;24.868;2024-02-23T07:31:14;98038.72;;;8.21;97.28
6532;BME280;3299;42.004;24.868;2024-02-23T07:33:39;98127.47;;;8.56;98.86
6532;BME280;3299;42.004;24.868;2024-02-23T07:36:05;98073.41;;;8.42;98.55
6532;BME280;3299;42.004;24.868;2024-02-23T07:38:30;98134.22;;;8.84;98.82
6532;BME280;3299;42.004;24.868;2024-02-23T07:40:56;98120.25;;;8.61;99.82
6532;BME280;3299;42.004;24.868;2024-02-23T07:43:21;98098.38;;;8.54;99.89
6532;BME280;3299;42.004;24.868;2024-02-23T07:45:46;98131.47;;;8.99;98.98
6532;BME280;3299;42.004;24.868;2024-02-23T07:48:12;98125.50;;;9.11;95.53
6532;BME280;3299;42.004;24.868;2024-02-23T07:50:37;98145.44;;;9.34;94.40
6532;BME280;3299;42.004;24.868;2024-02-23T07:53:04;98149.63;;;9.48;93.52
6532;BME280;3299;42.004;24.868;2024-02-23T07:55:30;98084.78;;;9.27;92.35
6532;BME280;3299;42.004;24.868;2024-02-23T07:57:55;98138.78;;;9.55;90.80
6532;BME280;3299;42.004;24.868;2024-02-23T08:00:26;98096.75;;;9.41;91.36
6532;BME280;3299;42.004;24.868;2024-02-23T08:02:52;98090.53;;;9.56;90.39
6532;BME280;3299;42.004;24.868;2024-02-23T08:05:17;98047.75;;;9.28;90.02
6532;BME280;3299;42.004;24.868;2024-02-23T08:07:42;98106.00;;;9.68;90.29
6532;BME280;3299;42.004;24.868;2024-02-23T08:10:08;98115.19;;;9.72;90.86
6532;BME280;3299;42.004;24.868;2024-02-23T08:12:35;98037.94;;;9.21;91.16
6532;BME280;3299;42.004;24.868;2024-02-23T08:15:01;98042.25;;;9.20;92.99
6532;BME280;3299;42.004;24.868;2024-02-23T08:17:26;98037.94;;;9.21;92.42
6532;BME280;3299;42.004;24.868;2024-02-23T08:19:52;98086.41;;;9.53;92.90
6532;BME280;3299;42.004;24.868;2024-02-23T08:22:17;98043.06;;;9.33;92.11
6532;BME280;3299;42.004;24.868;2024-02-23T08:24:42;98101.16;;;9.76;92.67
6532;BME280;3299;42.004;24.868;2024-02-23T08:27:08;98036.06;;;9.35;92.69
6532;BME280;3299;42.004;24.868;2024-02-23T08:29:33;98108.31;;;9.60;94.79
6532;BME280;3299;42.004;24.868;2024-02-23T08:31:58;98107.25;;;9.75;95.40
6532;BME280;3299;42.004;24.868;2024-02-23T08:34:24;98094.75;;;9.69;94.56
6532;BME280;3299;42.004;24.868;2024-02-23T08:36:50;98100.13;;;10.02;93.90
6532;BME280;3299;42.004;24.868;2024-02-23T08:39:16;98072.63;;;10.01;92.18
6532;BME280;3299;42.004;24.868;2024-02-23T08:41:41;98116.00;;;10.21;90.35
6532;BME280;3299;42.004;24.868;2024-02-23T08:44:06;98048.38;;;9.91;90.90
6532;BME280;3299;42.004;24.868;2024-02-23T08:46:32;98043.88;;;10.05;90.29
6532;BME280;3299;42.004;24.868;2024-02-23T08:48:57;98122.34;;;10.75;89.32
6532;BME280;3299;42.004;24.868;2024-02-23T08:51:23;98058.91;;;10.58;87.97
6532;BME280;3299;42.004;24.868;2024-02-23T08:53:48;98039.25;;;10.45;86.54
6532;BME280;3299;42.004;24.868;2024-02-23T08:56:14;98064.47;;;10.76;86.81
6532;BME280;3299;42.004;24.868;2024-02-23T08:58:41;98109.25;;;11.11;86.42
6532;BME280;3299;42.004;24.868;2024-02-23T09:01:06;98081.72;;;11.10;85.95
6532;BME280;3299;42.004;24.868;2024-02-23T09:03:32;98101.16;;;11.37;84.94
6532;BME280;3299;42.004;24.868;2024-02-23T09:05:57;98122.72;;;11.49;84.60
6532;BME280;3299;42.004;24.868;2024-02-23T09:08:23;98040.03;;;11.13;83.23
6532;BME280;3299;42.004;24.868;2024-02-23T09:10:48;98040.50;;;11.29;81.19
6532;BME280;3299;42.004;24.868;2024-02-23T09:13:13;98080.44;;;11.59;79.82
6532;BME280;3299;42.004;24.868;2024-02-23T09:15:40;98105.28;;;11.84;79.18
6532;BME280;3299;42.004;24.868;2024-02-23T09:18:07;98076.78;;;11.73;78.72
6532;BME280;3299;42.004;24.868;2024-02-23T09:20:33;98104.44;;;11.94;77.42
6532;BME280;3299;42.004;24.868;2024-02-23T09:22:58;98086.19;;;11.85;76.63
6532;BME280;3299;42.004;24.868;2024-02-23T09:25:24;98072.50;;;11.83;75.63
6532;BME280;3299;42.004;24.868;2024-02-23T09:27:49;98063.81;;;11.84;75.44
6532;BME280;3299;42.004;24.868;2024-02-23T09:30:14;98052.63;;;11.72;75.02
6532;BME280;3299;42.004;24.868;2024-02-23T09:32:41;98049.69;;;11.66;75.58
6532;BME280;3299;42.004;24.868;2024-02-23T09:35:07;98049.56;;;11.78;75.17
6532;BME280;3299;42.004;24.868;2024-02-23T09:37:32;98027.88;;;11.68;74.85
6532;BME280;3299;42.004;24.868;2024-02-23T09:39:58;98050.38;;;11.79;75.25
6532;BME280;3299;42.004;24.868;2024-02-23T09:42:23;98084.81;;;12.12;70.72
6532;BME280;3299;42.004;24.868;2024-02-23T09:44:57;98088.41;;;12.00;69.81
6532;BME280;3299;42.004;24.868;2024-02-23T09:47:24;98047.03;;;11.88;70.98
6532;BME280;3299;42.004;24.868;2024-02-23T09:49:52;98084.88;;;12.33;69.57
6532;BME280;3299;42.004;24.868;2024-02-23T09:52:19;98010.50;;;12.02;69.63
6532;BME280;3299;42.004;24.868;2024-02-23T09:54:45;98062.16;;;12.46;69.42
6532;BME280;3299;42.004;24.868;2024-02-23T09:57:11;98055.16;;;12.57;69.58
6532;BME280;3299;42.004;24.868;2024-02-23T09:59:36;97994.41;;;12.39;69.29
6532;BME280;3299;42.004;24.868;2024-02-23T10:02:07;97991.94;;;12.58;68.97
6532;BME280;3299;42.004;24.868;2024-02-23T10:04:33;98064.59;;;13.20;68.33
6532;BME280;3299;42.004;24.868;2024-02-23T10:06:59;98073.09;;;13.31;66.34
6532;BME280;3299;42.004;24.868;2024-02-23T10:09:24;98058.34;;;13.32;66.57
6532;BME280;3299;42.004;24.868;2024-02-23T10:11:53;98003.81;;;13.02;66.21
6532;BME280;3299;42.004;24.868;2024-02-23T10:14:20;98047.41;;;13.28;66.46
6532;BME280;3299;42.004;24.868;2024-02-23T10:16:46;97999.63;;;13.20;65.67
6532;BME280;3299;42.004;24.868;2024-02-23T10:19:11;98016.00;;;13.41;64.77
6532;BME280;3299;42.004;24.868;2024-02-23T10:21:36;98016.28;;;13.47;64.00
6532;BME280;3299;42.004;24.868;2024-02-23T10:24:02;97985.91;;;13.38;63.93
6532;BME280;3299;42.004;24.868;2024-02-23T10:26:27;97978.66;;;13.42;63.17
6532;BME280;3299;42.004;24.868;2024-02-23T10:28:53;98002.09;;;13.61;62.39
6532;BME280;3299;42.004;24.868;2024-02-23T10:31:18;98010.47;;;13.74;62.74
6532;BME280;3299;42.004;24.868;2024-02-23T10:33:44;98000.59;;;13.77;61.41
6532;BME280;3299;42.004;24.868;2024-02-23T10:36:15;98051.75;;;14.26;59.86
6532;BME280;3299;42.004;24.868;2024-02-23T10:38:44;98007.91;;;14.12;61.25
6532;BME280;3299;42.004;24.868;2024-02-23T10:41:13;98049.16;;;14.45;61.29
6532;BME280;3299;42.004;24.868;2024-02-23T10:43:44;97978.66;;;14.19;61.56
6532;BME280;3299;42.004;24.868;2024-02-23T10:46:12;98004.38;;;14.32;61.56
6532;BME280;3299;42.004;24.868;2024-02-23T10:48:41;98031.06;;;14.62;60.91
6532;BME280;3299;42.004;24.868;2024-02-23T10:51:07;98024.19;;;14.71;59.44
6532;BME280;3299;42.004;24.868;2024-02-23T10:53:36;98021.13;;;14.85;58.97
6532;BME280;3299;42.004;24.868;2024-02-23T10:56:04;98024.00;;;15.01;58.96
6532;BME280;3299;42.004;24.868;2024-02-23T10:58:30;97947.81;;;14.80;57.56
6532;BME280;3299;42.004;24.868;2024-02-23T11:01:00;97942.56;;;14.99;57.11
6532;BME280;3299;42.004;24.868;2024-02-23T11:03:28;98002.97;;;15.48;56.90
6532;BME280;3299;42.004;24.868;2024-02-23T11:05:54;97939.41;;;15.22;55.62
6532;BME280;3299;42.004;24.868;2024-02-23T11:08:20;98011.47;;;15.77;55.52
6532;BME280;3299;42.004;24.868;2024-02-23T11:10:51;97940.94;;;15.52;55.15
6532;BME280;3299;42.004;24.868;2024-02-23T11:13:17;97999.56;;;16.10;54.94
6532;BME280;3299;42.004;24.868;2024-02-23T11:15:43;97951.03;;;15.99;54.01
6532;BME280;3299;42.004;24.868;2024-02-23T11:18:22;97982.09;;;16.28;53.83
6532;BME280;3299;42.004;24.868;2024-02-23T11:20:54;97925.13;;;16.06;53.93
6532;BME280;3299;42.004;24.868;2024-02-23T11:23:20;97928.41;;;16.08;53.97
6532;BME280;3299;42.004;24.868;2024-02-23T11:26:18;98000.91;;;16.49;54.39
6532;BME280;3299;42.004;24.868;2024-02-23T11:28:51;97952.88;;;16.07;54.33
6532;BME280;3299;42.004;24.868;2024-02-23T11:31:24;97929.97;;;16.01;54.22
6532;BME280;3299;42.004;24.868;2024-02-23T11:33:54;97932.44;;;16.20;53.36
6532;BME280;3299;42.004;24.868;2024-02-23T11:36:32;97946.66;;;16.25;52.99
6532;BME280;3299;42.004;24.868;2024-02-23T11:39:00;97916.78;;;16.20;52.86
6532;BME280;3299;42.004;24.868;2024-02-23T11:41:26;97985.47;;;16.81;52.72
6532;BME280;3299;42.004;24.868;2024-02-23T11:43:53;97979.00;;;16.93;52.72
6532;BME280;3299;42.004;24.868;2024-02-23T11:46:19;97956.47;;;17.00;51.35
6532;BME280;3299;42.004;24.868;2024-02-23T11:48:45;97972.97;;;17.26;51.30
6532;BME280;3299;42.004;24.868;2024-02-23T11:51:19;97934.28;;;17.04;50.04
6532;BME280;3299;42.004;24.868;2024-02-23T11:53:46;97901.28;;;17.03;50.66
6532;BME280;3299;42.004;24.868;2024-02-23T11:56:11;97896.56;;;17.06;50.39
6532;BME280;3299;42.004;24.868;2024-02-23T11:58:37;97920.94;;;17.15;50.50
6532;BME280;3299;42.004;24.868;2024-02-23T12:01:02;97927.81;;;17.24;51.31
6532;BME280;3299;42.004;24.868;2024-02-23T12:03:31;97931.25;;;17.16;51.80
6532;BME280;3299;42.004;24.868;2024-02-23T12:06:00;97949.09;;;17.29;51.35
6532;BME280;3299;42.004;24.868;2024-02-23T12:08:26;97885.25;;;16.90;51.76
6532;BME280;3299;42.004;24.868;2024-02-23T12:10:56;97959.97;;;17.42;52.17
6532;BME280;3299;42.004;24.868;2024-02-23T12:13:22;97884.19;;;17.16;51.64
6532;BME280;3299;42.004;24.868;2024-02-23T12:15:48;97931.59;;;17.63;51.17
6532;BME280;3299;42.004;24.868;2024-02-23T12:18:18;97938.50;;;17.72;50.88
6532;BME280;3299;42.004;24.868;2024-02-23T12:20:49;97942.69;;;17.57;50.48
6532;BME280;3299;42.004;24.868;2024-02-23T12:23:15;97896.41;;;16.74;51.77
6532;BME280;3299;42.004;24.868;2024-02-23T12:25:40;97896.81;;;16.87;52.27
6532;BME280;3299;42.004;24.868;2024-02-23T12:28:06;97920.66;;;17.26;53.04
6532;BME280;3299;42.004;24.868;2024-02-23T12:30:31;97864.38;;;17.06;52.67
6532;BME280;3299;42.004;24.868;2024-02-23T12:33:05;97859.88;;;17.32;51.75
6532;BME280;3299;42.004;24.868;2024-02-23T12:35:33;97896.78;;;17.86;51.05
6532;BME280;3299;42.004;24.868;2024-02-23T12:37:59;97913.16;;;18.12;50.25
6532;BME280;3299;42.004;24.868;2024-02-23T12:40:25;97919.19;;;18.29;49.65
6532;BME280;3299;42.004;24.868;2024-02-23T12:42:50;97873.84;;;18.20;49.51
6532;BME280;3299;42.004;24.868;2024-02-23T12:45:15;97919.22;;;18.53;49.07
6532;BME280;3299;42.004;24.868;2024-02-23T12:47:41;97889.09;;;18.33;48.48
6532;BME280;3299;42.004;24.868;2024-02-23T12:50:07;97914.91;;;18.68;48.68
6532;BME280;3299;42.004;24.868;2024-02-23T12:52:34;97897.66;;;18.89;47.33
6532;BME280;3299;42.004;24.868;2024-02-23T12:54:59;97862.81;;;18.73;47.86
6532;BME280;3299;42.004;24.868;2024-02-23T12:57:25;97874.28;;;18.72;47.88
6532;BME280;3299;42.004;24.868;2024-02-23T12:59:50;97828.88;;;18.25;48.20
6532;BME280;3299;42.004;24.868;2024-02-23T13:02:16;97829.84;;;18.32;47.86
6532;BME280;3299;42.004;24.868;2024-02-23T13:04:42;97875.34;;;18.47;48.92
6532;BME280;3299;42.004;24.868;2024-02-23T13:07:11;97866.03;;;18.44;49.10
6532;BME280;3299;42.004;24.868;2024-02-23T13:09:37;97895.25;;;18.72;49.10
6532;BME280;3299;42.004;24.868;2024-02-23T13:12:02;97825.72;;;18.29;48.69